Time;durP1;ratioP1;P1;durP2;ratioP2;P2;SDS_P1;SDS_P2;PMS_P1;PMS_P2;Temp;Humidity;BMP_temperature;BMP_pressure;BME280_temperature;BME280_humidity;BME280_pressure;Samples;Min_cycle;Max_cycle;Signal;HPM_P1;HPM_P2
2023/10/07 00:04:52;;;;;;;10.23;4.68;;;;;13.90;101796.00;;;;10361233;28;20224;-74
2023/10/07 00:09:55;;;;;;;8.45;4.57;;;;;13.90;101809.00;;;;10263405;28;20240;-74
2023/10/07 00:14:57;;;;;;;12.27;4.72;;;;;14.00;101821.00;;;;10283251;28;20304;-74
2023/10/07 00:19:58;;;;;;;11.30;5.05;;;;;14.00;101809.00;;;;10341303;28;20209;-73
2023/10/07 00:25:01;;;;;;;8.50;5.28;;;;;14.10;101804.00;;;;10313610;28;20254;-73
2023/10/07 00:30:12;;;;;;;11.23;5.50;;;;;14.10;101796.00;;;;10273179;28;20221;-73
2023/10/07 00:35:16;;;;;;;11.95;5.05;;;;;14.00;101784.00;;;;10289881;28;20225;-73
2023/10/07 00:40:52;;;;;;;7.95;5.00;;;;;14.00;101783.00;;;;10461566;28;20941;-72
2023/10/07 00:45:47;;;;;;;9.98;5.10;;;;;14.00;101781.00;;;;10434358;28;20215;-72
2023/10/07 00:50:49;;;;;;;11.75;5.35;;;;;13.90;101797.00;;;;10418035;28;20213;-72
2023/10/07 00:55:52;;;;;;;11.82;5.60;;;;;13.90;101798.00;;;;10453196;28;20823;-73
2023/10/07 01:00:56;;;;;;;14.23;6.07;;;;;13.90;101793.00;;;;10426675;28;21969;-73
2023/10/07 01:16:28;;;;;;;12.23;6.05;;;;;13.80;101771.00;;;;10464536;28;20229;-72
2023/10/07 01:21:33;;;;;;;12.05;6.20;;;;;13.80;101759.00;;;;10468968;28;20886;-73
2023/10/07 01:26:39;;;;;;;10.75;5.88;;;;;13.80;101755.00;;;;10471230;28;20224;-72
2023/10/07 01:32:18;;;;;;;14.45;5.60;;;;;13.80;101763.00;;;;10443804;28;20854;-73
2023/10/07 01:37:15;;;;;;;12.57;5.88;;;;;13.70;101773.00;;;;10471292;28;20210;-72
2023/10/07 01:47:39;;;;;;;14.25;6.65;;;;;13.90;101765.00;;;;10468390;28;20226;-73
2023/10/07 01:52:46;;;;;;;16.33;6.07;;;;;14.00;101756.00;;;;10473156;28;20205;-73
2023/10/07 01:57:50;;;;;;;11.65;6.40;;;;;14.10;101748.00;;;;10471224;28;20221;-72
2023/10/07 02:02:59;;;;;;;12.80;6.70;;;;;14.10;101750.00;;;;10473589;28;20271;-72
2023/10/07 02:08:03;;;;;;;12.18;5.88;;;;;14.20;101744.00;;;;10468464;28;20221;-72
2023/10/07 02:13:05;;;;;;;17.95;6.95;;;;;14.20;101747.00;;;;10465952;28;20213;-72
2023/10/07 02:18:12;;;;;;;13.77;6.18;;;;;14.20;101744.00;;;;10464966;28;20258;-72
2023/10/07 02:23:20;;;;;;;14.70;6.53;;;;;14.30;101739.00;;;;10476607;28;20206;-72
2023/10/07 02:28:22;;;;;;;10.27;6.55;;;;;14.30;101761.00;;;;10463147;28;20229;-72
2023/10/07 02:33:26;;;;;;;12.48;6.22;;;;;14.30;101766.00;;;;10469879;28;20205;-72
2023/10/07 02:38:37;;;;;;;12.90;6.40;;;;;14.30;101777.00;;;;10463190;28;20205;-72
2023/10/07 02:43:43;;;;;;;13.32;5.13;;;;;14.30;101778.00;;;;10459097;28;20220;-72
2023/10/07 02:48:45;;;;;;;12.23;6.15;;;;;14.30;101767.00;;;;10460057;28;20222;-72
2023/10/07 02:53:48;;;;;;;9.80;6.20;;;;;14.20;101754.00;;;;10464789;28;20201;-72
2023/10/07 02:59:00;;;;;;;10.57;5.60;;;;;14.20;101751.00;;;;10459423;28;20220;-72
2023/10/07 03:04:02;;;;;;;11.65;6.43;;;;;14.20;101738.00;;;;10454459;28;20764;-72
2023/10/07 03:09:10;;;;;;;11.60;6.07;;;;;14.20;101729.00;;;;10457188;28;20253;-72
2023/10/07 03:14:12;;;;;;;11.70;6.70;;;;;14.20;101733.00;;;;10433705;28;20217;-72
2023/10/07 03:19:22;;;;;;;16.73;6.85;;;;;14.20;101744.00;;;;10449802;28;20217;-72
2023/10/07 03:24:41;;;;;;;10.88;6.60;;;;;14.20;101737.00;;;;10459772;28;20229;-72
2023/10/07 03:30:00;;;;;;;13.25;7.10;;;;;14.30;101738.00;;;;10472050;28;20217;-73
2023/10/07 03:35:16;;;;;;;11.30;6.47;;;;;14.30;101736.00;;;;10471792;28;20720;-73
2023/10/07 03:40:34;;;;;;;11.48;6.35;;;;;14.30;101751.00;;;;10470874;28;20296;-72
2023/10/07 03:45:39;;;;;;;13.48;6.72;;;;;14.30;101730.00;;;;10443369;28;20206;-72
2023/10/07 03:50:41;;;;;;;10.25;5.93;;;;;14.30;101717.00;;;;10471599;28;20680;-72
2023/10/07 03:55:43;;;;;;;14.88;6.93;;;;;14.30;101722.00;;;;10456447;28;20213;-73
2023/10/07 04:00:46;;;;;;;12.65;5.97;;;;;14.30;101733.00;;;;10461673;28;20216;-72
2023/10/07 04:05:49;;;;;;;15.35;6.75;;;;;14.30;101730.00;;;;10454668;28;20218;-72
2023/10/07 04:10:54;;;;;;;13.85;7.18;;;;;14.40;101735.00;;;;10487081;28;20217;-73
2023/10/07 04:15:57;;;;;;;8.95;5.53;;;;;14.40;101723.00;;;;10465661;28;20216;-72
2023/10/07 04:20:59;;;;;;;11.80;6.50;;;;;14.40;101725.00;;;;10479283;28;20660;-72
2023/10/07 04:26:20;;;;;;;13.43;6.68;;;;;14.50;101729.00;;;;10481808;28;20205;-74
2023/10/07 04:31:30;;;;;;;12.57;6.78;;;;;14.40;101710.00;;;;10471970;28;20209;-73
2023/10/07 04:36:54;;;;;;;11.98;6.53;;;;;14.40;101710.00;;;;10468697;28;20305;-73
2023/10/07 04:42:05;;;;;;;11.13;6.57;;;;;14.40;101712.00;;;;10473704;28;20213;-73
2023/10/07 04:52:30;;;;;;;12.25;6.45;;;;;14.50;101708.00;;;;10463165;28;20567;-73
2023/10/07 04:57:56;;;;;;;13.52;6.22;;;;;14.40;101693.00;;;;10461719;28;20221;-73
2023/10/07 05:03:08;;;;;;;14.50;7.57;;;;;14.40;101688.00;;;;10468278;28;20205;-72
2023/10/07 05:08:17;;;;;;;13.55;6.57;;;;;14.40;101719.00;;;;10456605;28;20221;-73
2023/10/07 05:13:21;;;;;;;10.52;6.80;;;;;14.50;101701.00;;;;10471435;28;20216;-72
2023/10/07 05:18:23;;;;;;;13.13;6.47;;;;;14.50;101687.00;;;;10465864;28;20912;-72
2023/10/07 05:23:26;;;;;;;15.20;7.50;;;;;14.50;101699.00;;;;10466627;28;20233;-72
2023/10/07 05:28:28;;;;;;;10.13;6.22;;;;;14.50;101714.00;;;;10479008;28;20222;-72
2023/10/07 05:33:34;;;;;;;15.73;6.70;;;;;14.50;101729.00;;;;10475865;28;20204;-72
2023/10/07 05:38:36;;;;;;;12.95;7.10;;;;;14.50;101765.00;;;;10478193;28;20206;-72
2023/10/07 05:43:43;;;;;;;12.82;7.60;;;;;14.50;101761.00;;;;10455082;28;20292;-74
2023/10/07 05:48:46;;;;;;;13.60;6.80;;;;;14.50;101762.00;;;;10465589;28;20232;-74
2023/10/07 05:53:48;;;;;;;13.63;6.70;;;;;14.50;101766.00;;;;10475017;28;20201;-74
2023/10/07 05:58:51;;;;;;;12.93;7.10;;;;;14.50;101754.00;;;;10470534;28;20211;-74
2023/10/07 06:03:53;;;;;;;17.10;6.90;;;;;14.40;101747.00;;;;10476646;28;20225;-74
2023/10/07 06:08:55;;;;;;;11.73;7.78;;;;;14.40;101757.00;;;;10475657;28;20632;-74
2023/10/07 06:13:59;;;;;;;14.43;7.57;;;;;14.50;101757.00;;;;10465644;28;20213;-74
2023/10/07 06:19:02;;;;;;;15.70;7.47;;;;;14.60;101767.00;;;;10469588;28;20260;-74
2023/10/07 06:24:07;;;;;;;13.38;7.40;;;;;14.60;101748.00;;;;10480860;28;20205;-73
2023/10/07 06:29:18;;;;;;;12.00;7.22;;;;;14.70;101753.00;;;;10469592;28;20250;-73
2023/10/07 06:34:32;;;;;;;16.77;7.68;;;;;14.80;101757.00;;;;10474295;28;20711;-73
2023/10/07 06:39:35;;;;;;;12.93;6.88;;;;;14.90;101753.00;;;;10467537;28;20214;-74
2023/10/07 06:44:38;;;;;;;12.15;7.38;;;;;15.00;101760.00;;;;10474325;28;20213;-73
2023/10/07 06:49:40;;;;;;;13.85;7.22;;;;;15.10;101762.00;;;;10460390;28;20225;-72
2023/10/07 06:54:42;;;;;;;17.60;6.90;;;;;15.20;101782.00;;;;10471645;28;20201;-71
2023/10/07 07:00:11;;;;;;;10.65;6.82;;;;;15.30;101779.00;;;;10467901;28;20745;-72
2023/10/07 07:05:16;;;;;;;14.55;6.13;;;;;15.40;101793.00;;;;10469470;28;20256;-72
2023/10/07 07:10:28;;;;;;;12.95;7.13;;;;;15.70;101799.00;;;;10438312;28;20226;-73
2023/10/07 07:15:36;;;;;;;14.10;6.40;;;;;15.90;101806.00;;;;10466026;28;20630;-72
2023/10/07 07:21:00;;;;;;;10.77;6.40;;;;;16.20;101805.00;;;;10462992;28;20200;-72
2023/10/07 07:31:10;;;;;;;17.65;6.28;;;;;16.80;101801.00;;;;10459725;28;20344;-73
2023/10/07 07:41:38;;;;;;;12.23;6.18;;;;;17.20;101762.00;;;;10475600;28;20197;-72
2023/10/07 07:47:02;;;;;;;12.40;6.15;;;;;17.40;101754.00;;;;10474609;28;20219;-72
2023/10/07 07:52:03;;;;;;;11.75;5.82;;;;;17.50;101764.00;;;;10468054;28;20293;-72
2023/10/07 07:57:07;;;;;;;14.48;6.10;;;;;17.70;101772.00;;;;10450256;28;20240;-72
2023/10/07 08:02:12;;;;;;;9.23;5.13;;;;;17.70;101763.00;;;;10473550;28;20216;-73
2023/10/07 08:07:21;;;;;;;10.35;5.10;;;;;17.40;101786.00;;;;10471659;28;20247;-73
2023/10/07 08:12:36;;;;;;;11.70;5.45;;;;;17.10;101805.00;;;;10467039;28;20214;-73
2023/10/07 08:17:39;;;;;;;16.73;6.18;;;;;17.00;101823.00;;;;10456839;28;20206;-73
2023/10/07 08:22:51;;;;;;;13.63;6.30;;;;;17.40;101816.00;;;;10472247;28;20906;-72
2023/10/07 08:27:55;;;;;;;14.63;5.82;;;;;18.10;101803.00;;;;10465629;28;20228;-73
2023/10/07 08:32:57;;;;;;;12.77;6.55;;;;;18.50;101812.00;;;;10472662;28;20247;-73
2023/10/07 08:37:59;;;;;;;10.48;6.35;;;;;18.90;101804.00;;;;10465070;28;20205;-73
2023/10/07 08:43:04;;;;;;;14.63;6.32;;;;;19.20;101814.00;;;;10473346;28;20214;-74
2023/10/07 08:48:16;;;;;;;11.32;6.10;;;;;19.50;101814.00;;;;10463225;28;20225;-72
2023/10/07 08:53:23;;;;;;;11.40;5.47;;;;;19.70;101818.00;;;;10469844;28;20632;-73
2023/10/07 08:58:29;;;;;;;14.65;6.07;;;;;20.00;101815.00;;;;10437544;28;20209;-73
2023/10/07 09:03:31;;;;;;;11.05;5.55;;;;;20.20;101810.00;;;;10462716;28;20201;-73
2023/10/07 09:08:36;;;;;;;10.98;6.13;;;;;20.40;101807.00;;;;10460446;28;20874;-73
2023/10/07 09:13:39;;;;;;;11.65;5.18;;;;;20.60;101809.00;;;;10444329;28;20279;-73
2023/10/07 09:18:41;;;;;;;12.13;5.82;;;;;20.80;101812.00;;;;10436391;28;20198;-73
2023/10/07 09:23:47;;;;;;;9.52;5.22;;;;;20.90;101812.00;;;;10452954;28;20233;-73
2023/10/07 09:28:59;;;;;;;10.70;5.53;;;;;21.00;101806.00;;;;10460767;28;20300;-72
2023/10/07 09:34:09;;;;;;;10.57;5.50;;;;;21.10;101816.00;;;;10435992;28;20209;-73
2023/10/07 09:44:26;;;;;;;9.73;4.60;;;;;21.20;101811.00;;;;10439725;28;20213;-73
2023/10/07 09:49:30;;;;;;;8.63;4.57;;;;;21.20;101824.00;;;;10458851;28;21131;-73
2023/10/07 09:55:06;;;;;;;10.25;4.50;;;;;21.40;101808.00;;;;10440792;28;20232;-73
2023/10/07 10:06:03;;;;;;;7.35;4.43;;;;;21.70;101797.00;;;;10462181;28;20827;-72
2023/10/07 10:11:20;;;;;;;7.88;4.30;;;;;21.80;101789.00;;;;10436382;28;20609;-73
2023/10/07 10:16:44;;;;;;;8.98;4.68;;;;;22.10;101792.00;;;;10458661;28;20897;-73
2023/10/07 10:21:47;;;;;;;8.90;4.47;;;;;22.40;101798.00;;;;10459240;28;20232;-73
2023/10/07 10:26:54;;;;;;;8.93;4.55;;;;;22.60;101800.00;;;;10462235;28;20194;-73
2023/10/07 10:32:02;;;;;;;8.95;4.90;;;;;22.90;101796.00;;;;10455717;28;20683;-73
2023/10/07 10:37:06;;;;;;;6.30;4.78;;;;;23.10;101817.00;;;;10459531;28;20266;-73
2023/10/07 10:42:13;;;;;;;8.35;5.05;;;;;23.40;101819.00;;;;10443770;28;20214;-73
2023/10/07 10:47:18;;;;;;;9.30;5.22;;;;;23.70;101800.00;;;;10453256;28;20216;-73
2023/10/07 10:52:21;;;;;;;10.15;5.05;;;;;23.90;101796.00;;;;10449418;28;20583;-73
2023/10/07 10:57:24;;;;;;;10.10;4.85;;;;;24.10;101783.00;;;;10452687;28;20201;-73
2023/10/07 11:02:26;;;;;;;9.57;4.60;;;;;24.30;101788.00;;;;10447653;28;20208;-73
2023/10/07 11:07:30;;;;;;;8.40;4.53;;;;;24.60;101777.00;;;;10455924;28;20630;-73
2023/10/07 11:12:33;;;;;;;10.82;4.80;;;;;24.70;101789.00;;;;10453106;28;20214;-73
2023/10/07 11:17:51;;;;;;;10.07;4.85;;;;;24.70;101782.00;;;;10456417;28;20206;-73
2023/10/07 11:22:53;;;;;;;6.22;4.28;;;;;24.50;101775.00;;;;10454994;28;20305;-73
2023/10/07 11:27:55;;;;;;;9.52;5.20;;;;;24.60;101793.00;;;;10448808;28;20882;-73
2023/10/07 11:33:09;;;;;;;6.75;4.47;;;;;24.70;101794.00;;;;10450246;28;20240;-72
2023/10/07 11:38:13;;;;;;;8.80;5.30;;;;;24.70;101803.00;;;;10442724;28;20785;-74
2023/10/07 11:43:15;;;;;;;9.35;4.88;;;;;24.80;101800.00;;;;10450606;28;20206;-73
2023/10/07 11:48:21;;;;;;;7.90;4.38;;;;;24.80;101800.00;;;;10449060;28;20863;-72
2023/10/07 11:53:25;;;;;;;8.23;4.75;;;;;24.90;101792.00;;;;10453996;28;20331;-73
2023/10/07 11:58:27;;;;;;;10.85;4.97;;;;;25.10;101790.00;;;;10443097;28;20218;-72
2023/10/07 12:03:32;;;;;;;8.75;4.68;;;;;25.10;101797.00;;;;10445935;28;20206;-74
2023/10/07 12:08:35;;;;;;;6.15;4.82;;;;;25.20;101796.00;;;;10453565;28;20221;-73
2023/10/07 12:13:40;;;;;;;8.90;4.32;;;;;25.20;101791.00;;;;10453797;28;20285;-72
2023/10/07 12:18:42;;;;;;;8.20;4.32;;;;;25.20;101801.00;;;;10451417;28;20214;-72
2023/10/07 12:23:44;;;;;;;7.43;4.22;;;;;25.30;101790.00;;;;10441746;28;20217;-72
2023/10/07 12:28:49;;;;;;;6.07;3.92;;;;;25.30;101792.00;;;;10457234;28;20429;-73
2023/10/07 12:33:51;;;;;;;6.78;4.10;;;;;25.40;101791.00;;;;10450552;28;20221;-74
2023/10/07 12:38:53;;;;;;;9.27;4.10;;;;;25.40;101782.00;;;;10462468;28;20734;-72
2023/10/07 12:43:55;;;;;;;7.95;4.05;;;;;25.40;101783.00;;;;10447642;28;20209;-72
2023/10/07 12:48:57;;;;;;;10.10;4.13;;;;;25.10;101785.00;;;;10447285;28;20228;-72
2023/10/07 12:54:00;;;;;;;8.80;4.18;;;;;24.80;101782.00;;;;10460780;28;21008;-72
2023/10/07 12:59:07;;;;;;;8.40;4.10;;;;;24.80;101787.00;;;;10452383;28;20218;-73
2023/10/07 13:04:09;;;;;;;6.95;4.32;;;;;24.60;101772.00;;;;10436328;28;20286;-72
2023/10/07 13:09:16;;;;;;;9.90;3.80;;;;;24.50;101774.00;;;;10453302;28;20705;-72
2023/10/07 13:14:19;;;;;;;7.63;4.07;;;;;24.20;101758.00;;;;10452087;28;20287;-72
2023/10/07 13:19:26;;;;;;;9.05;4.15;;;;;24.00;101773.00;;;;10446587;28;20340;-73
2023/10/07 13:24:29;;;;;;;6.28;3.80;;;;;23.90;101770.00;;;;10452820;28;20290;-72
2023/10/07 13:29:34;;;;;;;9.68;4.43;;;;;23.90;101774.00;;;;10444318;28;20229;-72
2023/10/07 13:34:38;;;;;;;8.25;4.07;;;;;23.90;101768.00;;;;10446533;28;20206;-72
2023/10/07 13:39:40;;;;;;;8.52;3.58;;;;;23.80;101781.00;;;;10455441;28;20874;-73
2023/10/07 13:44:42;;;;;;;8.77;4.10;;;;;24.90;101768.00;;;;10449352;28;20259;-73
2023/10/07 13:49:47;;;;;;;8.15;4.50;;;;;24.50;101780.00;;;;10449791;28;20213;-74
2023/10/07 13:55:13;;;;;;;10.65;4.75;;;;;24.40;101767.00;;;;10451439;28;21114;-74
2023/10/07 14:00:28;;;;;;;7.22;4.20;;;;;23.80;101752.00;;;;10464399;28;20210;-73
2023/10/07 14:05:30;;;;;;;8.63;4.35;;;;;23.60;101753.00;;;;10450116;28;20200;-73
2023/10/07 14:10:36;;;;;;;7.65;4.35;;;;;23.60;101747.00;;;;10455704;28;20231;-73
2023/10/07 14:15:39;;;;;;;10.60;4.43;;;;;23.30;101742.00;;;;10456897;28;20218;-73
2023/10/07 14:20:43;;;;;;;6.82;4.07;;;;;23.60;101736.00;;;;10446906;28;20812;-73
2023/10/07 14:25:49;;;;;;;9.18;3.78;;;;;23.50;101778.00;;;;10449254;28;20190;-73
2023/10/07 14:30:52;;;;;;;9.68;4.00;;;;;23.00;101772.00;;;;10454756;28;20668;-73
2023/10/07 14:35:54;;;;;;;7.22;4.13;;;;;23.30;101766.00;;;;10455991;28;20190;-73
2023/10/07 14:40:56;;;;;;;12.48;4.20;;;;;23.10;101782.00;;;;10438916;28;20202;-73
2023/10/07 14:45:58;;;;;;;9.93;4.10;;;;;22.80;101791.00;;;;10450970;28;20210;-73
2023/10/07 14:51:13;;;;;;;10.40;4.18;;;;;22.50;101773.00;;;;10432882;28;20217;-73
2023/10/07 14:56:18;;;;;;;9.25;3.78;;;;;22.40;101771.00;;;;10458818;28;20208;-73
2023/10/07 15:01:23;;;;;;;7.53;3.97;;;;;22.30;101769.00;;;;10453470;28;20193;-73
2023/10/07 15:06:25;;;;;;;7.85;4.15;;;;;22.30;101759.00;;;;10458911;28;20868;-73
2023/10/07 15:11:27;;;;;;;8.02;4.05;;;;;22.20;101751.00;;;;10459486;28;20229;-73
2023/10/07 15:16:34;;;;;;;8.98;4.10;;;;;22.10;101743.00;;;;10458229;28;20221;-73
2023/10/07 15:21:37;;;;;;;9.95;4.32;;;;;22.10;101739.00;;;;10457835;28;20210;-72
2023/10/07 15:26:39;;;;;;;7.78;4.13;;;;;22.00;101745.00;;;;10456911;28;20301;-73
2023/10/07 15:31:41;;;;;;;9.18;3.85;;;;;22.00;101741.00;;;;10457681;28;20221;-72
2023/10/07 15:36:44;;;;;;;6.38;3.90;;;;;22.00;101738.00;;;;10446981;28;20215;-73
2023/10/07 15:41:46;;;;;;;7.32;3.83;;;;;21.90;101724.00;;;;10438146;28;20660;-73
2023/10/07 15:46:48;;;;;;;8.00;3.72;;;;;21.80;101719.00;;;;10456839;28;20259;-72
2023/10/07 15:51:52;;;;;;;7.47;4.00;;;;;21.70;101698.00;;;;10451750;28;20225;-73
2023/10/07 15:56:54;;;;;;;6.65;3.95;;;;;21.60;101737.00;;;;10456989;28;20285;-73
2023/10/07 16:01:57;;;;;;;9.75;4.15;;;;;21.60;101745.00;;;;10457178;28;20192;-73
2023/10/07 16:07:04;;;;;;;6.32;3.78;;;;;21.50;101750.00;;;;10483614;28;20293;-73
2023/10/07 16:12:14;;;;;;;6.72;3.97;;;;;21.40;101742.00;;;;10460703;28;20225;-76
2023/10/07 16:17:16;;;;;;;10.10;4.28;;;;;21.40;101748.00;;;;10461008;28;20194;-77
2023/10/07 16:22:18;;;;;;;6.70;3.75;;;;;21.40;101740.00;;;;10471100;28;20652;-76
2023/10/07 16:27:19;;;;;;;7.03;3.65;;;;;21.40;101740.00;;;;10469127;28;20210;-83
2023/10/07 16:32:23;;;;;;;10.75;4.03;;;;;21.20;101746.00;;;;10443143;28;20603;-74
2023/10/07 16:37:25;;;;;;;5.53;3.88;;;;;21.10;101752.00;;;;10454500;28;20193;-74
2023/10/07 16:42:27;;;;;;;8.65;3.70;;;;;21.00;101750.00;;;;10454933;28;20284;-74
2023/10/07 16:47:30;;;;;;;9.77;4.57;;;;;21.00;101746.00;;;;10451587;28;20801;-73
2023/10/07 16:52:32;;;;;;;6.25;3.97;;;;;20.80;101749.00;;;;10449438;28;21135;-75
2023/10/07 16:57:35;;;;;;;5.75;3.45;;;;;20.70;101751.00;;;;10462170;28;20201;-75
2023/10/07 17:02:37;;;;;;;5.00;3.25;;;;;20.60;101752.00;;;;10455195;28;20820;-74
2023/10/07 17:07:39;;;;;;;9.48;3.83;;;;;20.40;101755.00;;;;10454564;28;20792;-74
2023/10/07 17:12:41;;;;;;;6.28;3.65;;;;;20.30;101755.00;;;;10447042;28;20296;-75
2023/10/07 17:17:43;;;;;;;5.97;3.10;;;;;20.20;101756.00;;;;10453676;28;20736;-74
2023/10/07 17:22:45;;;;;;;5.00;3.78;;;;;20.00;101754.00;;;;10460254;28;20894;-72
2023/10/07 17:27:47;;;;;;;9.57;3.80;;;;;19.90;101763.00;;;;10450960;28;20237;-73
2023/10/07 17:32:50;;;;;;;5.78;3.28;;;;;19.80;101755.00;;;;10463089;28;20245;-73
2023/10/07 17:37:53;;;;;;;7.07;3.33;;;;;19.80;101759.00;;;;10455721;28;20198;-73
2023/10/07 17:42:55;;;;;;;10.73;4.07;;;;;19.70;101751.00;;;;10454771;28;20272;-72
2023/10/07 17:47:58;;;;;;;6.00;3.65;;;;;19.80;101747.00;;;;10453797;28;20206;-73
2023/10/07 17:53:00;;;;;;;4.50;3.40;;;;;19.80;101751.00;;;;10457836;28;20255;-73
2023/10/07 17:58:04;;;;;;;5.15;3.35;;;;;19.70;101751.00;;;;10461946;28;20665;-73
2023/10/07 18:03:07;;;;;;;9.27;3.55;;;;;19.70;101752.00;;;;10458462;28;20960;-73
2023/10/07 18:08:09;;;;;;;7.75;3.90;;;;;19.70;101774.00;;;;10458114;28;20186;-72
2023/10/07 18:13:12;;;;;;;6.85;3.40;;;;;19.80;101784.00;;;;10448408;28;20202;-73
2023/10/07 18:18:15;;;;;;;8.55;3.67;;;;;19.80;101783.00;;;;10444989;28;20193;-73
2023/10/07 18:23:17;;;;;;;5.93;3.72;;;;;19.80;101782.00;;;;10436806;28;20247;-73
2023/10/07 18:28:21;;;;;;;8.73;3.92;;;;;19.80;101791.00;;;;10452213;28;20202;-72
2023/10/07 18:33:23;;;;;;;11.65;4.07;;;;;19.70;101791.00;;;;10460637;28;20198;-73
2023/10/07 18:38:25;;;;;;;8.75;4.13;;;;;19.60;101789.00;;;;10460362;28;20251;-73
2023/10/07 18:43:28;;;;;;;11.45;4.38;;;;;19.60;101789.00;;;;10462912;28;20205;-73
2023/10/07 18:48:29;;;;;;;6.38;4.00;;;;;19.50;101792.00;;;;10461754;28;20201;-73
2023/10/07 18:53:31;;;;;;;6.22;3.70;;;;;19.40;101784.00;;;;10443061;28;20192;-73
2023/10/07 18:58:33;;;;;;;6.32;4.00;;;;;19.30;101788.00;;;;10460680;28;20255;-72
2023/10/07 19:03:37;;;;;;;7.50;3.85;;;;;19.10;101789.00;;;;10454081;28;20206;-72
2023/10/07 19:08:39;;;;;;;7.72;4.10;;;;;19.00;101791.00;;;;10456628;28;20233;-72
2023/10/07 19:13:41;;;;;;;7.90;4.25;;;;;19.00;101803.00;;;;10448735;28;20209;-72
2023/10/07 19:18:43;;;;;;;6.93;3.63;;;;;18.90;101789.00;;;;10464848;28;20663;-72
2023/10/07 19:23:45;;;;;;;7.25;3.90;;;;;18.80;101792.00;;;;10465926;28;20248;-73
2023/10/07 19:28:47;;;;;;;6.85;3.80;;;;;18.60;101784.00;;;;10465116;28;20233;-72
2023/10/07 19:33:50;;;;;;;9.48;4.13;;;;;18.50;101785.00;;;;10468298;28;20213;-72
2023/10/07 19:38:55;;;;;;;6.30;3.60;;;;;18.50;101794.00;;;;10473734;28;20907;-73
2023/10/07 19:43:57;;;;;;;8.55;3.90;;;;;18.50;101806.00;;;;10461018;28;20202;-72
2023/10/07 19:48:59;;;;;;;7.25;3.83;;;;;18.40;101798.00;;;;10453988;28;20934;-72
2023/10/07 19:54:02;;;;;;;6.35;4.00;;;;;18.40;101795.00;;;;10460320;28;20198;-71
2023/10/07 19:59:05;;;;;;;7.63;3.65;;;;;18.30;101796.00;;;;10460762;28;20264;-72
2023/10/07 20:04:07;;;;;;;11.18;3.83;;;;;18.30;101804.00;;;;10458397;28;20982;-71
2023/10/07 20:09:09;;;;;;;6.25;3.75;;;;;18.20;101794.00;;;;10461892;28;20202;-72
2023/10/07 20:14:12;;;;;;;8.52;3.45;;;;;18.20;101797.00;;;;10461611;28;20211;-72
2023/10/07 20:19:14;;;;;;;5.90;3.28;;;;;18.10;101784.00;;;;10459605;28;20288;-71
2023/10/07 20:24:16;;;;;;;6.57;3.65;;;;;18.10;101801.00;;;;10460831;28;20194;-72
2023/10/07 20:29:18;;;;;;;6.85;4.00;;;;;18.00;101805.00;;;;10457038;28;20217;-71
2023/10/07 20:34:20;;;;;;;6.47;3.72;;;;;18.00;101797.00;;;;10465610;28;20213;-72
2023/10/07 20:39:22;;;;;;;6.85;3.53;;;;;17.90;101817.00;;;;10450082;28;20202;-72
2023/10/07 20:44:24;;;;;;;6.10;3.92;;;;;17.90;101811.00;;;;10453021;28;20844;-73
2023/10/07 20:49:26;;;;;;;6.57;3.30;;;;;17.90;101810.00;;;;10456148;28;20277;-73
2023/10/07 20:54:28;;;;;;;6.65;3.90;;;;;17.90;101804.00;;;;10464868;28;20195;-73
2023/10/07 20:59:31;;;;;;;7.57;3.83;;;;;17.80;101823.00;;;;10462691;28;20304;-73
2023/10/07 21:04:36;;;;;;;6.88;3.33;;;;;17.90;101822.00;;;;10460729;28;20201;-73
2023/10/07 21:09:38;;;;;;;8.45;3.33;;;;;17.80;101831.00;;;;10464129;28;20263;-73
2023/10/07 21:14:40;;;;;;;7.65;3.97;;;;;17.80;101831.00;;;;10435844;28;21602;-73
2023/10/07 21:19:42;;;;;;;7.70;3.80;;;;;17.70;101829.00;;;;10457726;28;20201;-73
2023/10/07 21:24:44;;;;;;;7.82;3.58;;;;;17.60;101823.00;;;;10468657;28;20217;-73
2023/10/07 21:29:46;;;;;;;8.85;3.90;;;;;17.60;101809.00;;;;10457747;28;20222;-73
2023/10/07 21:34:49;;;;;;;9.25;3.45;;;;;17.60;101810.00;;;;10448351;28;20628;-73
2023/10/07 21:39:51;;;;;;;5.90;3.38;;;;;17.50;101810.00;;;;10383437;28;20201;-73
2023/10/07 21:44:53;;;;;;;8.57;3.42;;;;;17.50;101824.00;;;;10431623;28;20275;-73
2023/10/07 21:49:55;;;;;;;8.77;3.58;;;;;17.40;101839.00;;;;10457092;28;20214;-73
2023/10/07 21:54:59;;;;;;;8.95;4.03;;;;;17.40;101869.00;;;;10463656;28;20190;-73
2023/10/07 22:00:01;;;;;;;6.57;3.42;;;;;17.40;101876.00;;;;10426879;28;20204;-74
2023/10/07 22:05:06;;;;;;;8.27;3.45;;;;;17.20;101858.00;;;;10454998;28;20217;-74
2023/10/07 22:10:09;;;;;;;5.72;3.20;;;;;17.00;101870.00;;;;10459811;28;20210;-73
2023/10/07 22:15:12;;;;;;;8.40;3.03;;;;;16.80;101872.00;;;;10456413;28;20209;-74
2023/10/07 22:20:19;;;;;;;6.18;2.90;;;;;16.60;101884.00;;;;10461725;28;20306;-74
2023/10/07 22:25:28;;;;;;;9.32;3.60;;;;;16.60;101881.00;;;;10465545;28;20286;-73
2023/10/07 22:30:29;;;;;;;7.28;3.55;;;;;16.40;101870.00;;;;10466348;28;20233;-73
2023/10/07 22:35:34;;;;;;;10.07;3.45;;;;;16.20;101873.00;;;;10464340;28;20193;-74
2023/10/07 22:40:58;;;;;;;7.10;3.15;;;;;16.20;101884.00;;;;10468602;28;20779;-74
2023/10/07 22:46:03;;;;;;;10.55;2.97;;;;;16.20;101897.00;;;;10458423;28;20952;-72
2023/10/07 22:51:26;;;;;;;7.47;3.15;;;;;16.10;101897.00;;;;10463855;28;20275;-73
2023/10/07 22:56:31;;;;;;;7.00;3.28;;;;;16.10;101892.00;;;;10469637;28;20566;-73
2023/10/07 23:06:40;;;;;;;7.22;3.55;;;;;15.90;101889.00;;;;10467009;28;20590;-73
2023/10/07 23:11:48;;;;;;;5.78;3.60;;;;;15.70;101881.00;;;;10471480;28;20916;-73
2023/10/07 23:16:52;;;;;;;4.70;3.15;;;;;15.60;101887.00;;;;10454894;28;20193;-73
2023/10/07 23:26:57;;;;;;;6.65;3.05;;;;;15.50;101886.00;;;;10473229;28;20267;-73
2023/10/07 23:32:03;;;;;;;6.25;2.90;;;;;15.40;101889.00;;;;10465592;28;20214;-73
2023/10/07 23:37:05;;;;;;;5.90;3.17;;;;;15.30;101859.00;;;;10472551;28;20721;-73
2023/10/07 23:42:11;;;;;;;8.50;3.17;;;;;15.30;101870.00;;;;10458953;28;20718;-74
2023/10/07 23:47:15;;;;;;;6.43;3.13;;;;;15.20;101878.00;;;;10465455;28;20197;-73
2023/10/07 23:52:18;;;;;;;7.82;3.42;;;;;15.20;101880.00;;;;10467534;28;20218;-72
2023/10/07 23:57:22;;;;;;;7.30;3.05;;;;;15.20;101874.00;;;;10469171;28;20197;-73
